sensor_id;sensor_type;location;lat;lon;timestamp;pressure;altitude;pressure_sealevel;temperature;humidity
3122;BME280;1571;52.524;14.104;2023-10-31T00:00:28;99070.84;;;10.17;100.00
3122;BME280;1571;52.524;14.104;2023-10-31T00:02:57;99069.72;;;10.19;100.00
3122;BME280;1571;52.524;14.104;2023-10-31T00:05:25;99084.53;;;10.22;100.00
3122;BME280;1571;52.524;14.104;2023-10-31T00:07:53;99078.69;;;10.18;100.00
3122;BME280;1571;52.524;14.104;2023-10-31T00:10:22;99092.38;;;10.24;100.00
3122;BME280;1571;52.524;14.104;2023-10-31T00:12:50;99074.50;;;10.26;100.00
3122;BME280;1571;52.524;14.104;2023-10-31T00:15:20;99057.06;;;10.23;100.00
3122;BME280;1571;52.524;14.104;2023-10-31T00:17:48;99054.22;;;10.36;100.00
3122;BME280;1571;52.524;14.104;2023-10-31T00:20:17;99039.94;;;10.37;100.00
3122;BME280;1571;52.524;14.104;2023-10-31T00:22:45;99028.22;;;10.30;100.00
3122;BME280;1571;52.524;14.104;2023-10-31T00:25:13;99038.28;;;10.36;100.00
3122;BME280;1571;52.524;14.104;2023-10-31T00:27:41;99008.66;;;10.31;100.00
3122;BME280;1571;52.524;14.104;2023-10-31T00:30:10;99015.69;;;10.51;100.00
3122;BME280;1571;52.524;14.104;2023-10-31T00:32:40;99011.22;;;10.61;100.00
3122;BME280;1571;52.524;14.104;2023-10-31T00:35:09;99003.41;;;10.60;100.00
3122;BME280;1571;52.524;14.104;2023-10-31T00:37:39;99006.50;;;10.65;100.00
3122;BME280;1571;52.524;14.104;2023-10-31T00:40:08;99005.22;;;10.59;100.00
3122;BME280;1571;52.524;14.104;2023-10-31T00:42:38;99012.47;;;10.57;100.00
3122;BME280;1571;52.524;14.104;2023-10-31T00:45:08;99017.25;;;10.63;100.00
3122;BME280;1571;52.524;14.104;2023-10-31T00:47:37;99019.19;;;10.61;100.00
3122;BME280;1571;52.524;14.104;2023-10-31T00:50:07;99027.31;;;10.70;100.00
3122;BME280;1571;52.524;14.104;2023-10-31T00:52:36;99029.84;;;10.81;100.00
3122;BME280;1571;52.524;14.104;2023-10-31T00:55:05;99026.28;;;10.51;100.00
3122;BME280;1571;52.524;14.104;2023-10-31T00:57:33;99014.03;;;10.79;100.00
3122;BME280;1571;52.524;14.104;2023-10-31T01:00:01;99014.72;;;10.52;100.00
3122;BME280;1571;52.524;14.104;2023-10-31T01:02:29;99006.22;;;10.58;100.00
3122;BME280;1571;52.524;14.104;2023-10-31T01:04:58;99012.34;;;10.49;100.00
3122;BME280;1571;52.524;14.104;2023-10-31T01:07:27;99011.81;;;10.65;100.00
3122;BME280;1571;52.524;14.104;2023-10-31T01:09:56;99002.31;;;10.72;100.00
3122;BME280;1571;52.524;14.104;2023-10-31T01:12:24;99002.59;;;10.79;100.00
3122;BME280;1571;52.524;14.104;2023-10-31T01:14:55;98995.59;;;10.97;100.00
3122;BME280;1571;52.524;14.104;2023-10-31T01:17:24;98984.72;;;10.81;100.00
3122;BME280;1571;52.524;14.104;2023-10-31T01:19:52;98980.78;;;10.85;100.00
3122;BME280;1571;52.524;14.104;2023-10-31T01:22:20;98967.81;;;10.72;100.00
3122;BME280;1571;52.524;14.104;2023-10-31T01:24:50;98974.09;;;10.81;100.00
3122;BME280;1571;52.524;14.104;2023-10-31T01:27:18;98959.53;;;10.85;100.00
3122;BME280;1571;52.524;14.104;2023-10-31T01:29:47;98948.94;;;10.75;100.00
3122;BME280;1571;52.524;14.104;2023-10-31T01:32:15;98950.19;;;10.61;100.00
3122;BME280;1571;52.524;14.104;2023-10-31T01:34:48;98957.19;;;10.43;100.00
3122;BME280;1571;52.524;14.104;2023-10-31T01:37:17;98967.09;;;10.41;100.00
3122;BME280;1571;52.524;14.104;2023-10-31T01:39:46;98963.81;;;10.28;100.00
3122;BME280;1571;52.524;14.104;2023-10-31T01:42:18;98964.03;;;10.46;100.00
3122;BME280;1571;52.524;14.104;2023-10-31T01:44:46;98963.56;;;10.31;100.00
3122;BME280;1571;52.524;14.104;2023-10-31T01:47:15;98973.78;;;10.65;100.00
3122;BME280;1571;52.524;14.104;2023-10-31T01:49:43;98972.41;;;10.80;100.00
3122;BME280;1571;52.524;14.104;2023-10-31T01:52:11;98965.41;;;10.59;100.00
3122;BME280;1571;52.524;14.104;2023-10-31T01:54:40;98960.38;;;10.47;100.00
3122;BME280;1571;52.524;14.104;2023-10-31T01:57:08;98953.41;;;10.55;100.00
3122;BME280;1571;52.524;14.104;2023-10-31T01:59:37;98944.47;;;10.56;100.00
3122;BME280;1571;52.524;14.104;2023-10-31T02:02:07;98946.16;;;10.57;100.00
3122;BME280;1571;52.524;14.104;2023-10-31T02:04:36;98945.19;;;10.58;100.00
3122;BME280;1571;52.524;14.104;2023-10-31T02:07:04;98950.19;;;10.71;100.00
3122;BME280;1571;52.524;14.104;2023-10-31T02:09:33;98936.63;;;10.84;100.00
3122;BME280;1571;52.524;14.104;2023-10-31T02:12:01;98936.63;;;10.84;100.00
3122;BME280;1571;52.524;14.104;2023-10-31T02:14:29;98937.63;;;10.83;100.00
3122;BME280;1571;52.524;14.104;2023-10-31T02:16:59;98932.47;;;10.72;100.00
3122;BME280;1571;52.524;14.104;2023-10-31T02:19:27;98928.28;;;10.79;100.00
3122;BME280;1571;52.524;14.104;2023-10-31T02:21:57;98921.84;;;10.72;100.00
3122;BME280;1571;52.524;14.104;2023-10-31T02:24:26;98909.69;;;10.69;100.00
3122;BME280;1571;52.524;14.104;2023-10-31T02:26:55;98899.34;;;10.66;100.00
3122;BME280;1571;52.524;14.104;2023-10-31T02:29:24;98898.94;;;10.71;100.00
3122;BME280;1571;52.524;14.104;2023-10-31T02:31:52;98904.81;;;10.55;100.00
3122;BME280;1571;52.524;14.104;2023-10-31T02:34:22;98907.31;;;10.47;100.00
3122;BME280;1571;52.524;14.104;2023-10-31T02:36:50;98908.44;;;10.44;100.00
3122;BME280;1571;52.524;14.104;2023-10-31T02:39:20;98904.94;;;10.44;100.00
3122;BME280;1571;52.524;14.104;2023-10-31T02:41:48;98911.22;;;10.62;100.00
3122;BME280;1571;52.524;14.104;2023-10-31T02:44:16;98913.31;;;10.39;100.00
3122;BME280;1571;52.524;14.104;2023-10-31T02:46:47;98906.09;;;10.60;100.00
3122;BME280;1571;52.524;14.104;2023-10-31T02:49:15;98904.81;;;10.45;100.00
3122;BME280;1571;52.524;14.104;2023-10-31T02:51:43;98894.88;;;10.67;100.00
3122;BME280;1571;52.524;14.104;2023-10-31T02:54:12;98900.03;;;10.78;100.00
3122;BME280;1571;52.524;14.104;2023-10-31T02:56:41;98883.56;;;10.74;100.00
3122;BME280;1571;52.524;14.104;2023-10-31T02:59:09;98877.56;;;10.72;100.00
3122;BME280;1571;52.524;14.104;2023-10-31T03:01:38;98880.59;;;10.87;100.00
3122;BME280;1571;52.524;14.104;2023-10-31T03:04:06;98877.53;;;10.82;100.00
3122;BME280;1571;52.524;14.104;2023-10-31T03:06:35;98866.09;;;10.81;100.00
3122;BME280;1571;52.524;14.104;2023-10-31T03:09:03;98872.22;;;10.82;100.00
3122;BME280;1571;52.524;14.104;2023-10-31T03:11:31;98869.31;;;10.75;100.00
3122;BME280;1571;52.524;14.104;2023-10-31T03:14:01;98867.66;;;10.55;100.00
3122;BME280;1571;52.524;14.104;2023-10-31T03:16:30;98862.59;;;10.71;100.00
3122;BME280;1571;52.524;14.104;2023-10-31T03:18:58;98865.97;;;10.73;100.00
3122;BME280;1571;52.524;14.104;2023-10-31T03:21:27;98856.88;;;10.76;100.00
3122;BME280;1571;52.524;14.104;2023-10-31T03:23:55;98862.19;;;10.76;100.00
3122;BME280;1571;52.524;14.104;2023-10-31T03:26:24;98871.13;;;10.75;100.00
3122;BME280;1571;52.524;14.104;2023-10-31T03:28:52;98860.13;;;10.70;100.00
3122;BME280;1571;52.524;14.104;2023-10-31T03:31:25;98847.22;;;10.84;100.00
3122;BME280;1571;52.524;14.104;2023-10-31T03:33:54;98850.81;;;10.93;100.00
3122;BME280;1571;52.524;14.104;2023-10-31T03:36:22;98860.34;;;10.86;100.00
3122;BME280;1571;52.524;14.104;2023-10-31T03:38:50;98861.06;;;10.88;100.00
3122;BME280;1571;52.524;14.104;2023-10-31T03:41:19;98852.75;;;11.01;100.00
3122;BME280;1571;52.524;14.104;2023-10-31T03:43:50;98851.69;;;10.84;100.00
3122;BME280;1571;52.524;14.104;2023-10-31T03:46:18;98851.00;;;10.82;100.00
3122;BME280;1571;52.524;14.104;2023-10-31T03:48:48;98857.69;;;10.86;100.00
3122;BME280;1571;52.524;14.104;2023-10-31T03:51:16;98853.09;;;10.88;100.00
3122;BME280;1571;52.524;14.104;2023-10-31T03:53:45;98851.53;;;10.95;100.00
3122;BME280;1571;52.524;14.104;2023-10-31T03:56:13;98832.53;;;10.90;100.00
3122;BME280;1571;52.524;14.104;2023-10-31T03:58:42;98831.03;;;10.78;100.00
3122;BME280;1571;52.524;14.104;2023-10-31T04:01:11;98834.91;;;10.93;100.00
3122;BME280;1571;52.524;14.104;2023-10-31T04:03:39;98836.22;;;10.70;100.00
3122;BME280;1571;52.524;14.104;2023-10-31T04:06:09;98847.78;;;10.88;100.00
3122;BME280;1571;52.524;14.104;2023-10-31T04:08:37;98848.66;;;10.79;100.00
3122;BME280;1571;52.524;14.104;2023-10-31T04:11:05;98852.00;;;10.81;100.00
3122;BME280;1571;52.524;14.104;2023-10-31T04:13:33;98858.59;;;10.57;100.00
3122;BME280;1571;52.524;14.104;2023-10-31T04:16:02;98859.00;;;10.72;100.00
3122;BME280;1571;52.524;14.104;2023-10-31T04:18:31;98869.00;;;10.88;100.00
3122;BME280;1571;52.524;14.104;2023-10-31T04:20:59;98857.84;;;10.94;100.00
3122;BME280;1571;52.524;14.104;2023-10-31T04:23:29;98857.84;;;10.94;100.00
3122;BME280;1571;52.524;14.104;2023-10-31T04:25:57;98857.22;;;11.00;100.00
3122;BME280;1571;52.524;14.104;2023-10-31T04:28:25;98860.06;;;10.89;100.00
3122;BME280;1571;52.524;14.104;2023-10-31T04:30:53;98865.19;;;11.00;100.00
3122;BME280;1571;52.524;14.104;2023-10-31T04:33:21;98861.41;;;11.03;100.00
3122;BME280;1571;52.524;14.104;2023-10-31T04:35:50;98863.09;;;11.04;100.00
3122;BME280;1571;52.524;14.104;2023-10-31T04:38:18;98857.34;;;11.09;100.00
3122;BME280;1571;52.524;14.104;2023-10-31T04:40:47;98861.66;;;11.10;100.00
3122;BME280;1571;52.524;14.104;2023-10-31T04:43:16;98859.75;;;11.02;100.00
3122;BME280;1571;52.524;14.104;2023-10-31T04:45:44;98872.34;;;11.00;100.00
3122;BME280;1571;52.524;14.104;2023-10-31T04:48:13;98876.63;;;11.11;100.00
3122;BME280;1571;52.524;14.104;2023-10-31T04:50:41;98873.84;;;11.02;100.00
3122;BME280;1571;52.524;14.104;2023-10-31T04:53:09;98882.66;;;11.13;100.00
3122;BME280;1571;52.524;14.104;2023-10-31T04:55:38;98889.03;;;11.20;100.00
3122;BME280;1571;52.524;14.104;2023-10-31T04:58:07;98892.97;;;11.16;100.00
3122;BME280;1571;52.524;14.104;2023-10-31T05:00:36;98898.97;;;11.18;100.00
3122;BME280;1571;52.524;14.104;2023-10-31T05:03:04;98896.88;;;11.21;100.00
3122;BME280;1571;52.524;14.104;2023-10-31T05:05:32;98890.13;;;11.27;100.00
3122;BME280;1571;52.524;14.104;2023-10-31T05:08:00;98895.31;;;11.29;100.00
3122;BME280;1571;52.524;14.104;2023-10-31T05:10:29;98896.56;;;11.24;100.00
3122;BME280;1571;52.524;14.104;2023-10-31T05:12:57;98894.56;;;11.36;100.00
3122;BME280;1571;52.524;14.104;2023-10-31T05:15:27;98898.66;;;11.31;100.00
3122;BME280;1571;52.524;14.104;2023-10-31T05:17:58;98886.75;;;11.35;100.00
3122;BME280;1571;52.524;14.104;2023-10-31T05:20:26;98897.09;;;11.38;100.00
3122;BME280;1571;52.524;14.104;2023-10-31T05:22:54;98894.00;;;11.42;100.00
3122;BME280;1571;52.524;14.104;2023-10-31T05:25:23;98890.69;;;11.31;100.00
3122;BME280;1571;52.524;14.104;2023-10-31T05:27:51;98890.94;;;11.37;100.00
3122;BME280;1571;52.524;14.104;2023-10-31T05:30:20;98889.81;;;11.40;100.00
3122;BME280;1571;52.524;14.104;2023-10-31T05:32:50;98892.06;;;11.35;100.00
3122;BME280;1571;52.524;14.104;2023-10-31T05:35:19;98901.84;;;11.44;100.00
3122;BME280;1571;52.524;14.104;2023-10-31T05:37:47;98898.22;;;11.35;100.00
3122;BME280;1571;52.524;14.104;2023-10-31T05:40:16;98901.84;;;11.34;100.00
3122;BME280;1571;52.524;14.104;2023-10-31T05:42:44;98899.50;;;11.31;100.00
3122;BME280;1571;52.524;14.104;2023-10-31T05:45:13;98910.66;;;11.35;100.00
3122;BME280;1571;52.524;14.104;2023-10-31T05:47:41;98914.69;;;11.39;100.00
3122;BME280;1571;52.524;14.104;2023-10-31T05:50:11;98916.81;;;11.35;100.00
3122;BME280;1571;52.524;14.104;2023-10-31T05:52:39;98915.44;;;11.31;100.00
3122;BME280;1571;52.524;14.104;2023-10-31T05:55:07;98909.00;;;11.34;100.00
3122;BME280;1571;52.524;14.104;2023-10-31T05:57:36;98915.03;;;11.26;100.00
3122;BME280;1571;52.524;14.104;2023-10-31T06:00:05;98914.75;;;11.29;100.00
3122;BME280;1571;52.524;14.104;2023-10-31T06:02:39;98912.38;;;11.26;100.00
3122;BME280;1571;52.524;14.104;2023-10-31T06:05:08;98925.06;;;11.32;100.00
3122;BME280;1571;52.524;14.104;2023-10-31T06:07:37;98941.59;;;11.26;100.00
3122;BME280;1571;52.524;14.104;2023-10-31T06:10:06;98944.66;;;11.31;100.00
3122;BME280;1571;52.524;14.104;2023-10-31T06:12:34;98942.97;;;11.30;100.00
3122;BME280;1571;52.524;14.104;2023-10-31T06:15:03;98948.00;;;11.33;100.00
3122;BME280;1571;52.524;14.104;2023-10-31T06:17:31;98959.19;;;11.27;100.00
3122;BME280;1571;52.524;14.104;2023-10-31T06:20:01;98953.84;;;11.37;100.00
3122;BME280;1571;52.524;14.104;2023-10-31T06:22:30;98960.03;;;11.37;100.00
3122;BME280;1571;52.524;14.104;2023-10-31T06:24:59;98972.06;;;11.32;100.00
3122;BME280;1571;52.524;14.104;2023-10-31T06:27:28;98985.63;;;11.29;100.00
3122;BME280;1571;52.524;14.104;2023-10-31T06:29:56;98990.78;;;11.40;100.00
3122;BME280;1571;52.524;14.104;2023-10-31T06:32:45;98994.41;;;11.49;100.00
3122;BME280;1571;52.524;14.104;2023-10-31T06:35:13;98999.72;;;11.49;100.00
3122;BME280;1571;52.524;14.104;2023-10-31T06:37:41;98994.94;;;11.52;100.00
3122;BME280;1571;52.524;14.104;2023-10-31T06:40:11;98990.22;;;11.46;100.00
3122;BME280;1571;52.524;14.104;2023-10-31T06:42:39;98991.91;;;11.37;100.00
3122;BME280;1571;52.524;14.104;2023-10-31T06:45:08;98993.13;;;11.43;100.00
3122;BME280;1571;52.524;14.104;2023-10-31T06:47:37;99001.09;;;11.43;100.00
3122;BME280;1571;52.524;14.104;2023-10-31T06:50:07;99007.69;;;11.49;100.00
3122;BME280;1571;52.524;14.104;2023-10-31T06:52:36;99015.34;;;11.52;100.00
3122;BME280;1571;52.524;14.104;2023-10-31T06:55:05;99022.34;;;11.53;100.00
3122;BME280;1571;52.524;14.104;2023-10-31T06:57:34;99022.63;;;11.50;100.00
3122;BME280;1571;52.524;14.104;2023-10-31T07:00:04;99031.88;;;11.45;100.00
3122;BME280;1571;52.524;14.104;2023-10-31T07:02:35;99027.69;;;11.43;100.00
3122;BME280;1571;52.524;14.104;2023-10-31T07:05:04;99028.78;;;11.60;100.00
3122;BME280;1571;52.524;14.104;2023-10-31T07:07:33;99028.03;;;11.67;100.00
3122;BME280;1571;52.524;14.104;2023-10-31T07:10:01;99033.22;;;11.69;100.00
3122;BME280;1571;52.524;14.104;2023-10-31T07:12:29;99045.91;;;11.75;100.00
3122;BME280;1571;52.524;14.104;2023-10-31T07:14:59;99050.00;;;11.70;100.00
3122;BME280;1571;52.524;14.104;2023-10-31T07:17:28;99055.75;;;11.65;100.00
3122;BME280;1571;52.524;14.104;2023-10-31T07:19:56;99056.66;;;11.83;100.00
3122;BME280;1571;52.524;14.104;2023-10-31T07:22:24;99056.81;;;11.82;100.00
3122;BME280;1571;52.524;14.104;2023-10-31T07:24:53;99058.09;;;11.78;100.00
3122;BME280;1571;52.524;14.104;2023-10-31T07:27:21;99057.66;;;11.82;100.00
3122;BME280;1571;52.524;14.104;2023-10-31T07:29:49;99053.63;;;11.78;100.00
3122;BME280;1571;52.524;14.104;2023-10-31T07:32:19;99058.78;;;11.90;100.00
3122;BME280;1571;52.524;14.104;2023-10-31T07:34:47;99066.47;;;11.93;100.00
3122;BME280;1571;52.524;14.104;2023-10-31T07:37:15;99074.84;;;11.98;100.00
3122;BME280;1571;52.524;14.104;2023-10-31T07:39:43;99076.13;;;11.94;100.00
3122;BME280;1571;52.524;14.104;2023-10-31T07:42:12;99082.25;;;12.04;100.00
3122;BME280;1571;52.524;14.104;2023-10-31T07:44:40;99080.84;;;12.10;100.00
3122;BME280;1571;52.524;14.104;2023-10-31T07:47:08;99077.50;;;12.07;100.00
3122;BME280;1571;52.524;14.104;2023-10-31T07:49:38;99078.19;;;12.10;100.00
3122;BME280;1571;52.524;14.104;2023-10-31T07:52:07;99077.75;;;12.14;100.00
3122;BME280;1571;52.524;14.104;2023-10-31T07:54:38;99071.16;;;12.18;100.00
3122;BME280;1571;52.524;14.104;2023-10-31T07:57:07;99070.91;;;12.12;100.00
3122;BME280;1571;52.524;14.104;2023-10-31T07:59:35;99063.25;;;12.26;100.00
3122;BME280;1571;52.524;14.104;2023-10-31T08:02:04;99062.97;;;12.29;100.00
3122;BME280;1571;52.524;14.104;2023-10-31T08:04:32;99065.63;;;12.29;100.00
3122;BME280;1571;52.524;14.104;2023-10-31T08:07:02;99072.94;;;12.27;100.00
3122;BME280;1571;52.524;14.104;2023-10-31T08:09:30;99070.78;;;12.31;100.00
3122;BME280;1571;52.524;14.104;2023-10-31T08:11:58;99073.91;;;12.26;100.00
3122;BME280;1571;52.524;14.104;2023-10-31T08:14:26;99091.13;;;12.22;100.00
3122;BME280;1571;52.524;14.104;2023-10-31T08:16:55;99095.19;;;12.26;100.00
3122;BME280;1571;52.524;14.104;2023-10-31T08:19:23;99112.16;;;12.16;100.00
3122;BME280;1571;52.524;14.104;2023-10-31T08:21:51;99101.03;;;11.93;100.00
3122;BME280;1571;52.524;14.104;2023-10-31T08:24:24;99099.38;;;11.92;100.00
3122;BME280;1571;52.524;14.104;2023-10-31T08:26:52;99103.00;;;11.81;100.00
3122;BME280;1571;52.524;14.104;2023-10-31T08:29:20;99105.41;;;11.74;100.00
3122;BME280;1571;52.524;14.104;2023-10-31T08:31:49;99095.75;;;11.63;100.00
3122;BME280;1571;52.524;14.104;2023-10-31T08:34:17;99085.84;;;11.56;100.00
3122;BME280;1571;52.524;14.104;2023-10-31T08:36:46;99080.66;;;11.54;100.00
3122;BME280;1571;52.524;14.104;2023-10-31T08:39:14;99079.69;;;11.55;100.00
3122;BME280;1571;52.524;14.104;2023-10-31T08:41:51;99066.91;;;11.78;100.00
3122;BME280;1571;52.524;14.104;2023-10-31T08:44:19;99053.31;;;11.81;100.00
3122;BME280;1571;52.524;14.104;2023-10-31T08:46:47;99056.66;;;11.83;100.00
3122;BME280;1571;52.524;14.104;2023-10-31T08:49:16;99053.28;;;12.01;100.00
3122;BME280;1571;52.524;14.104;2023-10-31T08:51:44;99049.56;;;11.74;100.00
3122;BME280;1571;52.524;14.104;2023-10-31T08:54:12;99050.53;;;11.83;100.00
3122;BME280;1571;52.524;14.104;2023-10-31T08:56:41;99045.22;;;11.83;100.00
3122;BME280;1571;52.524;14.104;2023-10-31T08:59:10;99036.81;;;11.87;100.00
3122;BME280;1571;52.524;14.104;2023-10-31T09:01:39;99024.63;;;11.95;100.00
3122;BME280;1571;52.524;14.104;2023-10-31T09:04:07;99019.59;;;11.92;100.00
3122;BME280;1571;52.524;14.104;2023-10-31T09:06:35;99018.53;;;12.12;100.00
3122;BME280;1571;52.524;14.104;2023-10-31T09:09:04;99005.31;;;12.20;100.00
3122;BME280;1571;52.524;14.104;2023-10-31T09:11:32;99003.25;;;12.14;100.00
3122;BME280;1571;52.524;14.104;2023-10-31T09:14:00;99012.13;;;12.33;100.00
3122;BME280;1571;52.524;14.104;2023-10-31T09:16:30;99018.97;;;12.35;100.00
3122;BME280;1571;52.524;14.104;2023-10-31T09:18:58;99025.41;;;12.33;100.00
3122;BME280;1571;52.524;14.104;2023-10-31T09:21:27;99027.97;;;12.24;100.00
3122;BME280;1571;52.524;14.104;2023-10-31T09:23:55;99020.22;;;12.31;100.00
3122;BME280;1571;52.524;14.104;2023-10-31T09:26:23;99021.56;;;12.17;100.00
3122;BME280;1571;52.524;14.104;2023-10-31T09:28:52;99025.88;;;12.00;100.00
3122;BME280;1571;52.524;14.104;2023-10-31T09:31:20;99020.81;;;12.07;100.00
3122;BME280;1571;52.524;14.104;2023-10-31T09:33:50;99015.47;;;12.07;100.00
3122;BME280;1571;52.524;14.104;2023-10-31T09:36:21;99013.66;;;12.07;100.00
3122;BME280;1571;52.524;14.104;2023-10-31T09:38:49;99021.47;;;12.09;100.00
3122;BME280;1571;52.524;14.104;2023-10-31T09:41:18;99034.44;;;12.22;100.00
3122;BME280;1571;52.524;14.104;2023-10-31T09:43:46;99031.13;;;12.10;100.00
3122;BME280;1571;52.524;14.104;2023-10-31T09:46:15;99043.84;;;12.16;100.00
3122;BME280;1571;52.524;14.104;2023-10-31T09:48:44;99052.81;;;12.15;100.00
3122;BME280;1571;52.524;14.104;2023-10-31T09:51:14;99064.91;;;12.00;100.00
3122;BME280;1571;52.524;14.104;2023-10-31T09:53:44;99054.69;;;12.05;100.00
3122;BME280;1571;52.524;14.104;2023-10-31T09:56:14;99058.81;;;12.17;98.47
3122;BME280;1571;52.524;14.104;2023-10-31T09:58:43;99063.25;;;12.26;96.30
3122;BME280;1571;52.524;14.104;2023-10-31T10:01:11;99050.81;;;12.45;95.44
3122;BME280;1571;52.524;14.104;2023-10-31T10:03:42;99057.28;;;12.42;94.45
3122;BME280;1571;52.524;14.104;2023-10-31T10:06:11;99058.59;;;12.56;92.62
3122;BME280;1571;52.524;14.104;2023-10-31T10:08:40;99058.53;;;12.48;91.89
3122;BME280;1571;52.524;14.104;2023-10-31T10:11:09;99073.25;;;12.42;92.37
3122;BME280;1571;52.524;14.104;2023-10-31T10:13:37;99081.59;;;12.29;92.09
3122;BME280;1571;52.524;14.104;2023-10-31T10:16:06;99080.09;;;12.17;91.18
3122;BME280;1571;52.524;14.104;2023-10-31T10:18:36;99088.41;;;12.04;92.23
3122;BME280;1571;52.524;14.104;2023-10-31T10:21:08;99099.59;;;12.08;91.52
3122;BME280;1571;52.524;14.104;2023-10-31T10:23:36;99092.50;;;11.99;93.14
3122;BME280;1571;52.524;14.104;2023-10-31T10:26:06;99099.19;;;12.03;92.51
3122;BME280;1571;52.524;14.104;2023-10-31T10:28:35;99106.09;;;11.96;93.73
3122;BME280;1571;52.524;14.104;2023-10-31T10:31:04;99105.22;;;11.95;94.18
3122;BME280;1571;52.524;14.104;2023-10-31T10:33:33;99103.38;;;12.05;92.52
3122;BME280;1571;52.524;14.104;2023-10-31T10:36:02;99108.34;;;12.28;91.81
3122;BME280;1571;52.524;14.104;2023-10-31T10:38:33;99105.34;;;12.41;90.32
3122;BME280;1571;52.524;14.104;2023-10-31T10:41:06;99115.50;;;12.55;89.35
3122;BME280;1571;52.524;14.104;2023-10-31T10:43:37;99116.06;;;12.59;88.11
3122;BME280;1571;52.524;14.104;2023-10-31T10:46:07;99106.06;;;12.61;87.83
3122;BME280;1571;52.524;14.104;2023-10-31T10:48:39;99112.16;;;12.53;88.57
3122;BME280;1571;52.524;14.104;2023-10-31T10:51:18;99100.34;;;12.65;89.34
3122;BME280;1571;52.524;14.104;2023-10-31T10:53:50;99105.88;;;12.72;88.58
3122;BME280;1571;52.524;14.104;2023-10-31T10:56:25;99101.56;;;12.89;87.42
3122;BME280;1571;52.524;14.104;2023-10-31T10:58:58;99106.72;;;12.73;87.71
3122;BME280;1571;52.524;14.104;2023-10-31T11:01:31;99107.19;;;12.68;87.88
3122;BME280;1571;52.524;14.104;2023-10-31T11:04:00;99104.31;;;12.97;87.29
3122;BME280;1571;52.524;14.104;2023-10-31T11:06:29;99110.50;;;13.16;86.10
3122;BME280;1571;52.524;14.104;2023-10-31T11:08:57;99094.59;;;13.42;85.72
3122;BME280;1571;52.524;14.104;2023-10-31T11:11:28;99102.34;;;13.35;85.98
3122;BME280;1571;52.524;14.104;2023-10-31T11:13:58;99099.28;;;13.66;84.92
3122;BME280;1571;52.524;14.104;2023-10-31T11:16:34;99114.56;;;13.82;83.16
3122;BME280;1571;52.524;14.104;2023-10-31T11:19:08;99112.97;;;13.71;81.71
3122;BME280;1571;52.524;14.104;2023-10-31T11:21:52;99126.66;;;13.50;81.49
3122;BME280;1571;52.524;14.104;2023-10-31T11:24:21;99128.72;;;13.38;79.98
3122;BME280;1571;52.524;14.104;2023-10-31T11:26:52;99150.16;;;13.19;79.88
3122;BME280;1571;52.524;14.104;2023-10-31T11:29:21;99154.50;;;13.02;80.84
3122;BME280;1571;52.524;14.104;2023-10-31T11:31:49;99145.63;;;13.01;81.65
3122;BME280;1571;52.524;14.104;2023-10-31T11:34:19;99149.09;;;13.11;81.53
3122;BME280;1571;52.524;14.104;2023-10-31T11:36:48;99150.38;;;13.07;81.40
3122;BME280;1571;52.524;14.104;2023-10-31T11:39:19;99148.19;;;13.21;79.93
3122;BME280;1571;52.524;14.104;2023-10-31T11:41:55;99134.66;;;13.50;80.34
3122;BME280;1571;52.524;14.104;2023-10-31T11:44:26;99142.31;;;13.71;79.13
3122;BME280;1571;52.524;14.104;2023-10-31T11:46:58;99123.94;;;14.12;77.68
3122;BME280;1571;52.524;14.104;2023-10-31T11:49:46;99143.75;;;14.09;77.79
3122;BME280;1571;52.524;14.104;2023-10-31T11:52:15;99154.59;;;14.08;76.97
3122;BME280;1571;52.524;14.104;2023-10-31T11:54:44;99166.22;;;13.99;77.29
3122;BME280;1571;52.524;14.104;2023-10-31T11:57:27;99164.88;;;13.77;77.20
3122;BME280;1571;52.524;14.104;2023-10-31T11:59:55;99192.53;;;13.58;77.60
3122;BME280;1571;52.524;14.104;2023-10-31T12:02:23;99180.28;;;13.47;77.74
3122;BME280;1571;52.524;14.104;2023-10-31T12:05:06;99175.25;;;13.44;77.56
3122;BME280;1571;52.524;14.104;2023-10-31T12:07:41;99175.06;;;13.27;78.41
3122;BME280;1571;52.524;14.104;2023-10-31T12:10:10;99170.75;;;12.99;80.35
3122;BME280;1571;52.524;14.104;2023-10-31T12:12:40;99178.00;;;13.06;79.95
3122;BME280;1571;52.524;14.104;2023-10-31T12:15:09;99174.28;;;12.99;78.80
3122;BME280;1571;52.524;14.104;2023-10-31T12:17:37;99180.81;;;13.05;80.07
3122;BME280;1571;52.524;14.104;2023-10-31T12:20:07;99185.22;;;12.96;79.68
3122;BME280;1571;52.524;14.104;2023-10-31T12:22:36;99187.63;;;12.89;80.31
3122;BME280;1571;52.524;14.104;2023-10-31T12:25:06;99171.75;;;12.98;80.01
3122;BME280;1571;52.524;14.104;2023-10-31T12:27:46;99186.94;;;12.87;80.42
3122;BME280;1571;52.524;14.104;2023-10-31T12:30:17;99198.03;;;12.83;81.16
3122;BME280;1571;52.524;14.104;2023-10-31T12:32:53;99179.63;;;12.62;83.10
3122;BME280;1571;52.524;14.104;2023-10-31T12:35:24;99183.41;;;12.32;84.24
3122;BME280;1571;52.524;14.104;2023-10-31T12:37:54;99195.41;;;12.36;84.64
3122;BME280;1571;52.524;14.104;2023-10-31T12:40:23;99200.91;;;12.34;85.34
3122;BME280;1571;52.524;14.104;2023-10-31T12:42:54;99185.06;;;12.33;85.79
3122;BME280;1571;52.524;14.104;2023-10-31T12:45:22;99187.03;;;12.31;85.99
3122;BME280;1571;52.524;14.104;2023-10-31T12:48:01;99195.72;;;12.33;86.05
3122;BME280;1571;52.524;14.104;2023-10-31T12:50:31;99199.50;;;12.20;87.49
3122;BME280;1571;52.524;14.104;2023-10-31T12:52:59;99197.69;;;12.31;86.89
3122;BME280;1571;52.524;14.104;2023-10-31T12:55:31;99196.53;;;12.43;87.11
3122;BME280;1571;52.524;14.104;2023-10-31T12:58:07;99188.16;;;12.28;88.36
3122;BME280;1571;52.524;14.104;2023-10-31T13:00:37;99197.63;;;12.40;87.80
3122;BME280;1571;52.524;14.104;2023-10-31T13:03:07;99209.16;;;12.41;87.82
3122;BME280;1571;52.524;14.104;2023-10-31T13:05:36;99205.00;;;12.19;88.82
3122;BME280;1571;52.524;14.104;2023-10-31T13:08:13;99208.53;;;12.47;88.18
3122;BME280;1571;52.524;14.104;2023-10-31T13:10:42;99216.13;;;12.42;88.70
3122;BME280;1571;52.524;14.104;2023-10-31T13:13:12;99225.56;;;12.26;88.53